createdAt,value
2022-10-18T00:00:18.240Z,5.80
2022-10-18T00:03:03.742Z,5.30
2022-10-18T00:05:49.822Z,4.67
2022-10-18T00:08:37.219Z,5.17
2022-10-18T00:11:22.622Z,6.47
2022-10-18T00:14:08.390Z,5.77
2022-10-18T00:16:54.094Z,5.27
2022-10-18T00:19:39.536Z,4.90
2022-10-18T00:22:27.471Z,5.20
2022-10-18T00:25:13.628Z,5.97
2022-10-18T00:27:59.431Z,5.03
2022-10-18T00:30:45.069Z,6.13
2022-10-18T00:33:30.798Z,6.53
2022-10-18T00:36:16.541Z,6.10
2022-10-18T00:39:07.015Z,6.50
2022-10-18T00:41:52.452Z,5.60
2022-10-18T00:44:38.575Z,5.70
2022-10-18T00:47:23.827Z,5.90
2022-10-18T00:50:12.904Z,6.37
2022-10-18T00:53:01.781Z,5.40
2022-10-18T00:55:49.957Z,7.40
2022-10-18T00:58:35.753Z,5.83
2022-10-18T01:01:24.473Z,6.43
2022-10-18T01:04:15.648Z,6.47
2022-10-18T01:07:09.110Z,5.33
2022-10-18T01:10:00.065Z,4.97
2022-10-18T01:13:12.477Z,5.10
2022-10-18T01:16:07.280Z,5.10
2022-10-18T01:19:21.478Z,5.20
2022-10-18T01:22:34.757Z,5.33
2022-10-18T01:25:46.235Z,4.90
2022-10-18T01:29:08.614Z,5.70
2022-10-18T01:31:59.706Z,5.07
2022-10-18T01:34:48.945Z,5.50
2022-10-18T01:37:35.536Z,5.90
2022-10-18T01:40:23.664Z,5.73
2022-10-18T01:43:14.606Z,5.60
2022-10-18T01:46:01.632Z,6.73
2022-10-18T01:48:49.793Z,6.50
2022-10-18T01:51:37.325Z,6.57
2022-10-18T01:54:29.895Z,6.37
2022-10-18T01:57:22.789Z,6.53
2022-10-18T02:00:19.271Z,6.83
2022-10-18T02:03:15.206Z,6.40
2022-10-18T02:06:10.409Z,6.17
2022-10-18T02:09:06.414Z,6.60
2022-10-18T02:11:55.019Z,6.47
2022-10-18T02:14:47.339Z,6.67
2022-10-18T02:17:33.363Z,5.77
2022-10-18T02:20:28.447Z,7.30
2022-10-18T02:23:15.200Z,6.43
2022-10-18T02:26:02.120Z,6.80
2022-10-18T02:28:47.985Z,6.83
2022-10-18T02:31:44.300Z,6.40
2022-10-18T02:34:36.705Z,5.63
2022-10-18T02:37:28.203Z,6.40
2022-10-18T02:40:14.844Z,6.10
2022-10-18T02:43:02.530Z,7.03
2022-10-18T02:45:47.926Z,7.00
2022-10-18T02:48:33.487Z,6.73
2022-10-18T02:51:18.683Z,7.03
2022-10-18T02:54:04.466Z,6.83
2022-10-18T02:56:54.380Z,6.90
2022-10-18T02:59:42.174Z,7.40
2022-10-18T03:02:27.651Z,6.67
2022-10-18T03:05:13.521Z,6.77
2022-10-18T03:08:02.334Z,7.30
2022-10-18T03:10:47.734Z,6.90
2022-10-18T03:13:36.323Z,6.93
2022-10-18T03:16:24.454Z,6.17
2022-10-18T03:19:10.390Z,6.60
2022-10-18T03:21:58.469Z,6.53
2022-10-18T03:24:43.802Z,5.87
2022-10-18T03:27:29.654Z,6.30
2022-10-18T03:30:15.419Z,6.60
2022-10-18T03:33:01.040Z,6.10
2022-10-18T03:35:46.870Z,6.70
2022-10-18T03:38:37.206Z,6.57
2022-10-18T03:41:22.641Z,6.67
2022-10-18T03:44:10.612Z,7.00
2022-10-18T03:46:56.224Z,7.27
2022-10-18T03:49:41.761Z,5.73
2022-10-18T03:52:29.686Z,6.40
2022-10-18T03:55:15.828Z,5.70
2022-10-18T03:58:01.204Z,6.77
2022-10-18T04:00:50.036Z,7.00
2022-10-18T04:03:35.539Z,6.70
2022-10-18T04:06:23.986Z,6.50
2022-10-18T04:09:10.605Z,6.00
2022-10-18T04:11:56.087Z,5.80
2022-10-18T04:14:41.852Z,5.50
2022-10-18T04:17:29.875Z,6.17
2022-10-18T04:20:18.383Z,6.23
2022-10-18T04:23:03.741Z,6.03
2022-10-18T04:25:51.681Z,6.70
2022-10-18T04:28:40.115Z,5.80
2022-10-18T04:31:25.682Z,6.10
2022-10-18T04:34:11.343Z,6.10
2022-10-18T04:36:57.128Z,5.70
2022-10-18T04:39:49.845Z,5.77
2022-10-18T04:42:38.459Z,6.10
2022-10-18T04:45:24.229Z,4.77
2022-10-18T04:48:09.619Z,6.00
2022-10-18T04:50:55.156Z,5.17
2022-10-18T04:53:42.601Z,5.40
2022-10-18T04:56:30.439Z,5.70
2022-10-18T04:59:18.255Z,4.97
2022-10-18T05:02:05.544Z,5.90
2022-10-18T05:04:51.690Z,5.77
2022-10-18T05:07:37.630Z,4.30
2022-10-18T05:10:23.049Z,4.67
2022-10-18T05:13:13.803Z,5.03
2022-10-18T05:16:00.336Z,4.60
2022-10-18T05:18:46.293Z,5.40
2022-10-18T05:21:32.349Z,6.20
2022-10-18T05:24:21.965Z,5.63
2022-10-18T05:27:11.110Z,6.73
2022-10-18T05:29:58.907Z,5.27
2022-10-18T05:32:46.723Z,6.43
2022-10-18T05:35:34.533Z,6.30
2022-10-18T05:38:20.077Z,6.00
2022-10-18T05:41:06.081Z,6.10
2022-10-18T05:43:51.666Z,5.90
2022-10-18T05:46:37.167Z,5.50
2022-10-18T05:49:23.391Z,6.07
2022-10-18T05:52:09.073Z,6.17
2022-10-18T05:54:54.805Z,6.20
2022-10-18T05:57:39.997Z,6.00
2022-10-18T06:00:28.425Z,5.93
2022-10-18T06:03:16.493Z,5.20
2022-10-18T06:06:08.342Z,6.17
2022-10-18T06:08:53.676Z,7.00
2022-10-18T06:11:44.458Z,6.67
2022-10-18T06:14:38.367Z,6.20
2022-10-18T06:17:24.619Z,6.57
2022-10-18T06:20:11.358Z,6.10
2022-10-18T06:22:59.391Z,6.57
2022-10-18T06:25:45.548Z,6.70
2022-10-18T06:28:31.212Z,6.53
2022-10-18T06:31:17.553Z,7.33
2022-10-18T06:34:03.807Z,7.17
2022-10-18T06:36:56.396Z,6.80
2022-10-18T06:39:46.076Z,7.30
2022-10-18T06:42:32.233Z,7.47
2022-10-18T06:45:20.490Z,7.17
2022-10-18T06:48:06.311Z,7.30
2022-10-18T06:51:00.237Z,7.10
2022-10-18T06:53:59.254Z,6.30
2022-10-18T06:56:51.717Z,6.80
2022-10-18T06:59:40.064Z,7.30
2022-10-18T07:02:25.793Z,7.67
2022-10-18T07:05:18.098Z,7.40
2022-10-18T07:08:06.419Z,7.27
2022-10-18T07:10:54.751Z,6.87
2022-10-18T07:13:40.485Z,6.57
2022-10-18T07:16:26.604Z,6.93
2022-10-18T07:19:12.672Z,7.17
2022-10-18T07:21:58.334Z,6.50
2022-10-18T07:24:43.610Z,5.83
2022-10-18T07:27:31.912Z,5.70
2022-10-18T07:30:17.843Z,4.73
2022-10-18T07:33:05.876Z,6.93
2022-10-18T07:35:54.590Z,6.40
2022-10-18T07:38:41.041Z,6.53
2022-10-18T07:41:31.849Z,5.90
2022-10-18T07:44:17.385Z,6.40
2022-10-18T07:47:07.626Z,6.97
2022-10-18T07:49:53.171Z,7.30
2022-10-18T07:52:41.639Z,6.67
2022-10-18T07:55:26.967Z,6.03
2022-10-18T07:58:12.405Z,6.47
2022-10-18T08:00:58.107Z,6.63
2022-10-18T08:03:44.237Z,6.10
2022-10-18T08:06:29.547Z,5.73
2022-10-18T08:09:15.131Z,5.70
2022-10-18T08:12:00.581Z,6.23
2022-10-18T08:14:47.064Z,5.60
2022-10-18T08:17:32.833Z,5.80
2022-10-18T08:20:30.318Z,6.10
2022-10-18T08:23:17.311Z,6.47
2022-10-18T08:26:12.803Z,6.30
2022-10-18T08:29:28.079Z,6.83
2022-10-18T08:32:08.863Z,6.13
2022-10-18T08:34:54.576Z,6.20
2022-10-18T08:37:43.657Z,6.97
2022-10-18T08:40:29.431Z,6.53
2022-10-18T08:43:37.030Z,6.40
2022-10-18T08:46:22.852Z,5.90
2022-10-18T08:49:18.271Z,5.40
2022-10-18T08:52:21.486Z,5.00
2022-10-18T08:55:43.409Z,4.50
2022-10-18T08:58:34.680Z,4.87
2022-10-18T09:01:41.952Z,5.07
2022-10-18T09:04:41.840Z,4.20
2022-10-18T09:07:44.110Z,5.50
2022-10-18T09:10:42.614Z,4.80
2022-10-18T09:14:02.812Z,4.87
2022-10-18T09:17:01.726Z,4.90
2022-10-18T09:20:12.126Z,5.53
2022-10-18T09:23:23.097Z,4.40
2022-10-18T09:26:23.456Z,4.37
2022-10-18T09:29:09.114Z,5.30
2022-10-18T09:32:32.457Z,5.20
2022-10-18T09:35:38.312Z,5.53
2022-10-18T09:38:30.892Z,5.30
2022-10-18T09:41:25.831Z,5.70
2022-10-18T09:44:19.761Z,6.43
2022-10-18T09:47:18.317Z,5.73
2022-10-18T09:50:35.978Z,4.50
2022-10-18T09:53:50.484Z,4.80
2022-10-18T09:57:05.239Z,4.13
2022-10-18T09:59:56.974Z,5.60
2022-10-18T10:02:51.884Z,5.13
2022-10-18T10:05:39.907Z,4.67
2022-10-18T10:08:33.361Z,5.27
2022-10-18T10:11:29.260Z,5.10
2022-10-18T10:17:20.810Z,5.43
2022-10-18T10:20:20.669Z,7.00
2022-10-18T10:23:25.059Z,5.80
2022-10-18T10:26:32.097Z,5.93
2022-10-18T10:29:46.944Z,6.73
2022-10-18T10:32:47.482Z,5.53
2022-10-18T10:35:56.333Z,5.70
2022-10-18T10:38:46.580Z,6.70
2022-10-18T10:41:43.569Z,5.70
2022-10-18T10:44:38.254Z,6.03
2022-10-18T10:47:33.884Z,5.50
2022-10-18T10:50:26.911Z,6.60
2022-10-18T10:53:38.202Z,6.00
2022-10-18T10:56:33.540Z,7.80
2022-10-18T10:59:26.781Z,6.40
2022-10-18T11:02:39.548Z,6.57
2022-10-18T11:05:29.865Z,6.53
2022-10-18T11:08:29.320Z,6.70
2022-10-18T11:11:32.072Z,5.73
2022-10-18T11:14:27.635Z,6.60
2022-10-18T11:17:35.989Z,6.17
2022-10-18T11:20:36.811Z,6.20
2022-10-18T11:23:35.897Z,6.77
2022-10-18T11:26:31.151Z,6.80
2022-10-18T11:29:44.759Z,6.37
2022-10-18T11:32:56.717Z,5.00
2022-10-18T11:35:54.324Z,5.10
2022-10-18T11:39:13.455Z,5.33
2022-10-18T11:42:39.995Z,4.40
2022-10-18T11:45:43.642Z,4.40
2022-10-18T11:48:48.043Z,5.13
2022-10-18T11:52:07.284Z,5.67
2022-10-18T11:55:16.569Z,5.10
2022-10-18T11:58:38.183Z,5.00
2022-10-18T12:01:54.888Z,4.97
2022-10-18T12:04:59.828Z,5.13
2022-10-18T12:08:12.402Z,5.00
2022-10-18T12:11:07.691Z,3.87
2022-10-18T12:14:02.352Z,4.30
2022-10-18T12:16:51.322Z,4.93
2022-10-18T12:19:42.802Z,4.30
2022-10-18T12:22:43.099Z,5.17
2022-10-18T12:25:39.521Z,5.27
2022-10-18T12:28:43.830Z,4.67
2022-10-18T12:31:42.412Z,5.10
2022-10-18T12:34:41.776Z,3.90
2022-10-18T12:37:51.849Z,4.40
2022-10-18T12:40:44.810Z,5.10
2022-10-18T12:43:38.107Z,4.73
2022-10-18T12:46:58.460Z,4.20
2022-10-18T12:49:59.986Z,4.77
2022-10-18T12:53:20.285Z,4.83
2022-10-18T12:56:30.135Z,4.13
2022-10-18T12:59:26.277Z,4.53
2022-10-18T13:02:26.883Z,4.97
2022-10-18T13:05:54.475Z,4.70
2022-10-18T13:08:48.217Z,4.47
2022-10-18T13:11:41.037Z,5.50
2022-10-18T13:15:24.270Z,5.23
2022-10-18T13:18:20.835Z,4.87
2022-10-18T13:21:43.801Z,4.50
2022-10-18T13:24:44.276Z,3.80
2022-10-18T13:27:48.669Z,4.90
2022-10-18T13:30:44.122Z,4.97
2022-10-18T13:33:40.882Z,4.50
2022-10-18T13:36:33.692Z,5.30
2022-10-18T13:39:25.938Z,4.27
2022-10-18T13:42:29.001Z,4.27
2022-10-18T13:45:33.454Z,3.70
2022-10-18T13:48:31.509Z,4.83
2022-10-18T13:51:42.475Z,4.60
2022-10-18T13:55:09.904Z,4.57
2022-10-18T13:58:10.620Z,4.63
2022-10-18T14:01:30.600Z,3.90
2022-10-18T14:04:46.671Z,3.70
2022-10-18T14:07:40.140Z,3.60
2022-10-18T14:11:00.875Z,4.77
2022-10-18T14:14:16.574Z,4.20
2022-10-18T14:17:16.866Z,5.03
2022-10-18T14:20:28.752Z,4.20
2022-10-18T14:23:26.078Z,4.50
2022-10-18T14:26:22.847Z,4.77
2022-10-18T14:29:22.993Z,4.43
2022-10-18T14:32:30.030Z,4.13
2022-10-18T14:35:39.075Z,4.60
2022-10-18T14:38:32.191Z,4.90
2022-10-18T14:41:38.523Z,5.03
2022-10-18T14:44:37.250Z,4.70
2022-10-18T14:47:31.282Z,5.50
2022-10-18T14:50:30.466Z,4.97
2022-10-18T14:53:22.091Z,5.00
2022-10-18T14:56:22.121Z,5.67
2022-10-18T14:59:31.840Z,5.87
2022-10-18T15:02:32.722Z,5.47
2022-10-18T15:05:25.421Z,5.70
2022-10-18T15:08:18.059Z,5.17
2022-10-18T15:11:14.323Z,6.30
2022-10-18T15:14:15.811Z,5.80
2022-10-18T15:17:16.756Z,6.30
2022-10-18T15:20:32.670Z,6.80
2022-10-18T15:23:26.918Z,6.70
2022-10-18T15:26:26.712Z,6.80
2022-10-18T15:29:20.289Z,6.40
2022-10-18T15:32:28.926Z,6.10
2022-10-18T15:35:26.541Z,7.70
2022-10-18T15:38:28.141Z,7.00
2022-10-18T15:41:46.667Z,7.10
2022-10-18T15:44:51.472Z,8.43
2022-10-18T15:47:39.871Z,7.87
2022-10-18T15:50:47.488Z,7.60
2022-10-18T15:53:56.346Z,7.63
2022-10-18T15:56:45.218Z,8.20
2022-10-18T15:59:53.596Z,7.23
2022-10-18T16:02:45.261Z,7.03
2022-10-18T16:05:38.445Z,7.53
2022-10-18T16:08:32.340Z,9.03
2022-10-18T16:11:28.334Z,8.17
2022-10-18T16:14:14.354Z,7.77
2022-10-18T16:17:02.573Z,7.80
2022-10-18T16:19:51.670Z,9.30
2022-10-18T16:22:43.800Z,7.47
2022-10-18T16:25:34.830Z,7.30
2022-10-18T16:28:28.107Z,7.90
2022-10-18T16:31:23.635Z,7.43
2022-10-18T16:34:15.730Z,8.33
2022-10-18T16:37:07.921Z,7.00
2022-10-18T16:39:59.583Z,8.90
2022-10-18T16:42:54.341Z,7.20
2022-10-18T16:45:40.995Z,7.57
2022-10-18T16:48:33.248Z,7.90
2022-10-18T16:51:28.426Z,7.27
2022-10-18T16:54:21.260Z,8.10
2022-10-18T16:57:13.757Z,7.60
2022-10-18T17:00:08.041Z,7.33
2022-10-18T17:03:00.503Z,7.23
2022-10-18T17:05:53.331Z,7.60
2022-10-18T17:08:46.151Z,8.77
2022-10-18T17:11:38.116Z,7.60
2022-10-18T17:14:25.919Z,6.93
2022-10-18T17:17:18.010Z,8.00
2022-10-18T17:20:21.849Z,6.60
2022-10-18T17:23:15.740Z,6.93
2022-10-18T17:26:08.658Z,7.30
2022-10-18T17:29:16.534Z,7.70
2022-10-18T17:32:04.006Z,7.57
2022-10-18T17:34:54.940Z,7.30
2022-10-18T17:37:51.315Z,8.70
2022-10-18T17:40:43.196Z,8.40
2022-10-18T17:43:28.873Z,7.90
2022-10-18T17:46:15.347Z,8.30
2022-10-18T17:49:02.193Z,8.30
2022-10-18T17:51:50.271Z,8.40
2022-10-18T17:54:35.764Z,7.73
2022-10-18T17:57:24.002Z,8.00
2022-10-18T18:00:11.916Z,8.07
2022-10-18T18:02:58.998Z,7.93
2022-10-18T18:05:47.474Z,7.87
2022-10-18T18:08:36.758Z,7.73
2022-10-18T18:11:29.408Z,8.60
2022-10-18T18:14:20.106Z,7.70
2022-10-18T18:17:12.427Z,8.60
2022-10-18T18:20:03.201Z,7.40
2022-10-18T18:22:57.037Z,8.43
2022-10-18T18:25:56.784Z,7.80
2022-10-18T18:28:48.303Z,8.10
2022-10-18T18:31:41.371Z,6.50
2022-10-18T18:34:36.610Z,7.00
2022-10-18T18:37:28.924Z,7.80
2022-10-18T18:40:23.896Z,7.00
2022-10-18T18:43:23.166Z,7.17
2022-10-18T18:46:18.346Z,7.50
2022-10-18T18:49:11.697Z,6.87
2022-10-18T18:52:05.005Z,6.23
2022-10-18T18:54:56.518Z,6.90
2022-10-18T18:57:48.519Z,5.97
2022-10-18T19:00:41.863Z,6.30
2022-10-18T19:03:35.686Z,4.90
2022-10-18T19:06:38.988Z,5.10
2022-10-18T19:09:29.917Z,5.63
2022-10-18T19:12:21.432Z,4.63
2022-10-18T19:15:13.520Z,6.20
2022-10-18T19:18:05.527Z,5.50
2022-10-18T19:21:03.276Z,4.87
2022-10-18T19:23:48.556Z,4.83
2022-10-18T19:26:47.302Z,5.03
2022-10-18T19:29:35.502Z,5.70
2022-10-18T19:32:25.807Z,5.43
2022-10-18T19:35:13.821Z,5.37
2022-10-18T19:37:59.300Z,4.63
2022-10-18T19:40:51.609Z,4.83
2022-10-18T19:43:39.863Z,4.40
2022-10-18T19:46:27.862Z,4.67
2022-10-18T19:49:16.686Z,4.50
2022-10-18T19:52:12.437Z,5.10
2022-10-18T19:55:01.336Z,4.87
2022-10-18T19:57:52.966Z,4.47
2022-10-18T20:00:41.178Z,4.50
2022-10-18T20:03:32.940Z,5.30
2022-10-18T20:06:25.099Z,4.30
2022-10-18T20:09:19.703Z,4.13
2022-10-18T20:12:12.246Z,4.07
2022-10-18T20:15:05.480Z,3.57
2022-10-18T20:17:56.430Z,4.23
2022-10-18T20:20:45.810Z,3.97
2022-10-18T20:23:39.758Z,4.70
2022-10-18T20:26:26.163Z,4.03
2022-10-18T20:29:20.879Z,4.13
2022-10-18T20:32:10.227Z,3.30
2022-10-18T20:34:58.073Z,4.30
2022-10-18T20:37:43.881Z,3.53
2022-10-18T20:40:35.419Z,3.30
2022-10-18T20:43:25.945Z,3.60
2022-10-18T20:46:13.336Z,3.13
2022-10-18T20:49:06.674Z,3.60
2022-10-18T20:51:54.011Z,3.73
2022-10-18T20:54:42.112Z,3.30
2022-10-18T20:57:36.568Z,3.13
2022-10-18T21:00:31.691Z,2.83
2022-10-18T21:03:23.996Z,3.57
2022-10-18T21:06:22.339Z,2.83
2022-10-18T21:09:17.135Z,3.20
2022-10-18T21:12:02.855Z,3.20
2022-10-18T21:14:55.091Z,3.10
2022-10-18T21:17:40.804Z,3.00
2022-10-18T21:20:32.847Z,3.23
2022-10-18T21:23:18.768Z,3.53
2022-10-18T21:26:16.663Z,3.70
2022-10-18T21:29:02.577Z,2.57
2022-10-18T21:31:48.518Z,2.13
2022-10-18T21:34:37.899Z,2.90
2022-10-18T21:37:23.255Z,3.20
2022-10-18T21:40:15.562Z,2.60
2022-10-18T21:43:01.264Z,3.17
2022-10-18T21:45:49.954Z,2.90
2022-10-18T21:48:44.263Z,2.40
2022-10-18T21:51:30.309Z,2.93
2022-10-18T21:54:16.595Z,2.60
2022-10-18T21:57:01.909Z,2.73
2022-10-18T21:59:47.450Z,2.70
2022-10-18T22:02:32.941Z,2.20
2022-10-18T22:05:19.096Z,2.83
2022-10-18T22:08:05.577Z,2.27
2022-10-18T22:10:51.234Z,1.90
2022-10-18T22:13:37.152Z,2.40
2022-10-18T22:16:22.970Z,2.40
2022-10-18T22:19:11.545Z,1.90
2022-10-18T22:21:56.803Z,1.87
2022-10-18T22:24:44.528Z,1.90
2022-10-18T22:27:30.983Z,2.30
2022-10-18T22:30:16.963Z,2.20
2022-10-18T22:33:02.690Z,1.80
2022-10-18T22:35:51.245Z,1.70
2022-10-18T22:38:36.617Z,1.70
2022-10-18T22:41:22.062Z,1.90
2022-10-18T22:44:14.930Z,1.43
2022-10-18T22:47:03.669Z,1.67
2022-10-18T22:49:51.679Z,1.33
2022-10-18T22:52:37.292Z,2.47
2022-10-18T22:55:23.357Z,2.77
2022-10-18T22:58:08.482Z,2.20
2022-10-18T23:01:23.842Z,1.80
2022-10-18T23:04:10.488Z,2.23
2022-10-18T23:06:58.661Z,1.70
2022-10-18T23:09:44.125Z,1.67
2022-10-18T23:12:29.694Z,1.50
2022-10-18T23:15:15.302Z,1.57
2022-10-18T23:18:01.588Z,1.27
2022-10-18T23:20:46.977Z,1.50
2022-10-18T23:23:36.651Z,1.40
2022-10-18T23:26:24.999Z,1.60
2022-10-18T23:29:11.600Z,1.70
2022-10-18T23:31:57.316Z,1.77
2022-10-18T23:34:49.161Z,1.73
2022-10-18T23:37:35.121Z,1.50
2022-10-18T23:40:20.700Z,1.40
2022-10-18T23:43:08.271Z,1.90
2022-10-18T23:45:56.125Z,1.63
2022-10-18T23:48:44.594Z,1.40
2022-10-18T23:51:32.355Z,1.87
2022-10-18T23:54:17.755Z,2.10
2022-10-18T23:57:03.792Z,1.87
2022-10-18T23:59:49.395Z,1.60
